Date,TemperatureHighF,TemperatureAvgF,TemperatureLowF,DewpointHighF,DewpointAvgF,DewpointLowF,HumidityHigh,HumidityAvg,HumidityLow,PressureMaxIn,PressureMinIn,WindSpeedMaxMPH,WindSpeedAvgMPH,GustSpeedMaxMPH,PrecipitationSumIn
2012-1-1,31,25,16,28,16,2,90,70,53,0.00,40.00,13,9,34,2.98
2012-1-2,16,12,-4,4,-4,-13,65,50,35,0.00,40.00,12,6,29,0.07
2012-1-3,22,8,-12,9,-8,-18,72,52,23,0.00,40.00,8,4,24,0.00
2012-1-4,32,21,13,16,13,9,88,72,47,0.00,40.00,8,4,15,0.00
2012-1-5,45,31,17,24,19,14,89,66,35,0.00,40.00,10,4,22,0.00
2012-1-6,42,39,30,25,22,19,80,50,45,0.00,40.00,17,9,27,0.03
2012-1-7,30,26,24,25,15,7,82,62,44,0.00,40.00,11,5,25,0.00
2012-1-8,35,27,16,21,17,11,90,68,37,0.00,40.00,7,4,20,0.00
2012-1-9,44,35,25,24,20,17,89,57,36,0.00,40.00,11,6,21,0.00
2012-1-10,50,32,19,29,21,17,91,70,31,0.00,40.00,8,3,18,0.00
2012-1-11,35,27,14,32,24,8,91,87,76,0.00,40.00,11,3,24,1.88
2012-1-12,14,13,11,8,7,5,80,76,71,0.00,40.00,7,-4,18,1.54
2012-1-13,14,11,10,7,4,0,77,71,57,0.00,40.00,6,2,17,0.54
2012-1-14,16,12,10,4,2,0,73,63,52,0.00,40.00,3,1,9,0.00
2012-1-15,33,23,14,17,12,4,84,64,41,0.00,40.00,11,-51,17,0.00
2012-1-16,28,24,18,22,15,8,84,67,54,0.00,40.00,9,4,14,0.00
2012-1-17,18,10,-5,9,2,-12,79,68,54,0.00,40.00,9,5,19,1.65
2012-1-18,20,3,-16,9,-8,-22,84,65,34,0.00,40.00,15,4,31,2.33
2012-1-19,0,-6,-12,-9,-18,-22,75,59,34,0.00,40.00,15,7,31,0.06
2012-1-20,8,-5,-16,-13,-18,-24,73,55,28,0.00,40.00,6,-6,12,0.00
2012-1-21,18,2,-18,6,-11,-24,75,57,36,0.00,40.00,10,-16,19,0.00
2012-1-22,25,22,18,20,15,6,89,75,57,0.00,40.00,10,4,19,0.00
2012-1-23,25,22,20,22,19,14,90,86,76,0.00,40.00,12,5,24,5.49
2012-1-24,27,20,16,15,7,-100,81,67,47,0.00,40.00,10,-39,19,0.02
2012-1-25,34,27,20,21,18,14,84,70,48,0.00,40.00,7,4,17,0.33
2012-1-26,33,31,28,26,23,16,83,74,59,0.00,40.00,8,6,19,0.01
2012-1-27,30,19,10,27,13,6,88,78,61,0.00,40.00,7,3,14,1.14
2012-1-28,23,19,16,12,0,-100,79,55,50,0.00,40.00,16,-72,26,0.41
2012-1-29,20,9,-5,6,-9,-100,71,55,30,0.00,40.00,11,-59,17,0.14
2012-1-30,12,6,-4,9,-9,-100,86,69,71,0.00,40.00,7,-97,13,0.58
2012-1-31,40,35,30,27,24,19,78,65,42,0.00,40.00,11,8,19,0.00
2012-2-1,35,32,29,26,25,23,87,76,66,0.00,40.00,7,3,19,0.00
2012-2-2,40,33,29,28,18,-100,89,62,49,0.00,40.00,7,-54,12,0.00
2012-2-3,37,29,22,26,17,-100,90,71,55,0.00,40.00,6,-50,7,0.00
2012-2-4,42,27,18,24,19,15,91,74,37,0.00,40.00,14,4,19,0.00
2012-2-5,33,22,18,24,9,-100,91,74,47,0.00,40.00,9,-77,16,0.00
2012-2-6,39,30,24,24,20,13,89,69,41,0.00,40.00,9,5,16,0.00
2012-2-7,26,18,6,13,2,-14,64,51,24,0.00,40.00,6,3,15,0.00
2012-2-8,33,20,8,-3,-11,-19,52,27,10,0.00,40.00,11,6,18,0.00
2012-2-9,35,25,16,20,5,-3,81,44,24,0.00,40.00,9,6,22,1.64
2012-2-10,22,12,5,17,-2,-15,84,56,31,0.00,40.00,9,4,20,2.01
2012-2-11,14,7,-1,-7,-11,-17,63,44,33,0.00,40.00,15,9,29,0.00
2012-2-12,31,16,5,-8,-12,-16,49,31,12,0.00,40.00,12,6,22,0.00
2012-2-13,31,23,12,17,1,-10,66,39,29,0.00,40.00,7,3,14,0.00
2012-2-14,30,26,16,22,18,13,88,74,60,0.00,40.00,7,2,12,0.00
2012-2-15,27,22,16,24,19,13,90,89,88,0.00,40.00,1,0,2,0.14
2012-2-16,31,28,27,22,16,12,78,61,50,0.00,40.00,10,4,16,0.00
2012-2-17,31,26,20,24,19,14,90,77,63,0.00,40.00,4,1,8,0.52
2012-2-18,34,20,4,20,6,1,90,61,27,0.00,40.00,7,2,13,0.00
2012-2-19,40,23,5,15,8,1,84,59,25,0.00,40.00,6,2,12,0.00
2012-2-20,40,32,21,27,12,3,88,49,22,0.00,40.00,9,5,21,0.04
2012-2-21,35,32,28,30,26,21,89,78,59,0.00,40.00,12,7,26,0.89
2012-2-22,30,27,26,24,17,13,88,65,54,0.00,40.00,12,8,22,0.75
2012-2-23,29,24,15,17,12,9,81,62,45,0.00,40.00,6,2,10,0.00
2012-2-24,24,21,15,18,10,-100,78,65,52,0.00,40.00,10,-8,22,0.10
2012-2-25,29,19,13,11,8,4,80,63,37,0.00,40.00,9,4,14,0.00
2012-2-26,29,24,18,26,15,-100,92,73,44,0.00,40.00,16,-3,24,2.45
2012-2-27,28,21,15,25,11,4,92,66,36,0.00,40.00,9,6,18,0.39
2012-2-28,30,23,15,25,16,-100,89,77,64,0.00,40.00,10,-6,16,1.50
2012-2-29,30,28,27,28,25,-100,92,88,81,0.00,40.00,14,-1,31,7.59
2012-3-1,35,28,28,29,18,-100,90,81,56,0.00,40.00,4,-59,9,2.92
2012-3-2,40,28,27,31,13,-100,90,72,38,0.00,40.00,4,-94,9,0.04
2012-3-3,28,21,19,17,6,-100,83,68,64,0.00,40.00,7,-80,13,1.11
2012-3-4,27,16,5,13,2,-100,84,66,33,0.00,40.00,5,-56,12,0.19
2012-3-5,28,20,-3,19,12,-7,84,72,60,0.00,40.00,7,4,14,0.40
2012-3-6,47,28,22,26,16,-100,87,68,34,0.00,40.00,9,-97,12,0.00
2012-3-7,49,28,29,40,1,-100,90,63,61,0.00,40.00,9,-217,19,0.12
2012-3-8,34,26,18,22,8,-2,79,49,24,0.00,40.00,18,-1,32,1.83
2012-3-9,32,21,5,4,-5,-16,74,36,13,0.00,40.00,8,-34,22,0.00
2012-3-10,58,43,27,22,7,-100,35,24,15,0.00,40.00,10,-3,23,0.00
2012-3-11,63,51,38,28,20,-100,67,33,20,0.00,40.00,9,-7,18,0.00
2012-3-12,46,42,37,44,38,28,90,85,67,0.00,40.00,11,3,19,0.61
2012-3-13,57,44,31,37,14,-15,83,42,5,0.00,40.00,11,5,23,0.00
2012-3-14,67,46,29,37,28,-100,77,54,29,0.00,40.00,9,-8,14,0.00
2012-3-15,52,40,29,27,16,4,82,45,15,0.00,40.00,10,4,17,0.00
2012-3-16,58,41,27,33,27,19,77,59,37,0.00,40.00,9,3,12,0.00
2012-3-17,77,58,38,53,44,-100,89,65,34,0.00,40.00,11,-6,24,0.00
2012-3-18,78,67,51,53,47,42,88,53,29,0.00,40.00,11,5,22,0.00
2012-3-19,77,68,55,54,49,45,88,54,32,0.00,40.00,16,7,32,0.00
2012-3-20,71,61,52,55,48,-100,87,66,37,0.00,40.00,9,4,20,0.00
2012-3-21,59,53,48,56,48,-100,90,86,81,0.00,40.00,4,-10,12,0.00
2012-3-22,55,48,43,51,42,-100,89,87,84,0.00,40.00,6,-16,10,0.01
2012-3-23,54,46,40,51,42,37,89,89,89,0.00,40.00,6,2,9,0.05
2012-3-24,66,49,39,48,41,36,89,77,43,0.00,40.00,9,2,17,0.00
2012-3-25,48,38,29,37,23,8,82,59,19,0.00,40.00,9,6,17,0.00
2012-3-26,30,25,24,23,16,-100,79,74,72,0.00,40.00,7,-25,12,0.00
2012-3-28,47,41,34,29,25,21,74,54,36,0.00,40.00,10,5,21,0.00
2012-3-29,42,33,24,30,25,17,90,76,37,0.00,40.00,11,4,21,0.00
2012-3-30,38,35,33,35,32,27,90,89,75,0.00,40.00,10,4,17,0.09
2012-3-31,47,40,35,37,34,31,89,80,53,0.00,40.00,8,3,17,0.00
2012-4-1,54,44,39,41,38,36,89,81,54,0.00,40.00,8,3,17,0.00
2012-4-2,56,43,39,37,34,25,90,72,35,0.00,40.00,12,5,24,0.13
2012-4-3,61,42,36,36,29,1,89,66,9,0.00,40.00,6,2,16,0.00
2012-4-4,52,34,26,25,20,8,81,62,17,0.00,40.00,10,3,18,0.00
2012-4-5,45,32,25,29,21,2,90,67,16,0.00,40.00,12,4,19,0.00
2012-4-6,60,30,20,23,18,4,88,68,10,0.00,40.00,10,2,17,0.00
2012-4-7,63,40,25,43,31,18,89,74,19,0.00,40.00,11,3,21,0.02
2012-4-8,55,41,34,30,16,1,66,40,11,0.00,40.00,16,6,35,0.00
2012-4-9,38,34,30,20,12,6,56,40,29,0.00,40.00,14,7,30,0.00
2012-4-10,39,29,24,13,8,6,53,42,25,0.00,40.00,11,5,22,0.00
2012-4-11,52,33,26,23,18,13,83,56,22,0.00,40.00,6,3,14,0.00
2012-4-12,57,32,22,28,20,8,88,70,16,0.00,40.00,14,2,19,0.00
2012-4-13,58,43,26,36,26,14,87,57,18,0.00,40.00,14,6,25,0.00
2012-4-14,72,55,49,45,36,8,82,58,8,0.00,40.00,19,7,34,0.00
2012-4-15,53,47,40,42,39,34,91,76,49,0.00,40.00,12,8,34,0.08
2012-4-16,40,31,26,37,23,12,89,74,49,0.00,40.00,11,5,24,6.03
2012-4-17,52,29,15,28,18,11,86,68,25,0.00,40.00,9,2,14,0.00
2012-4-18,49,42,30,45,36,26,89,79,56,0.00,40.00,12,5,23,0.29
2012-4-19,44,33,27,31,25,16,90,73,35,0.00,40.00,11,3,19,0.00
2012-4-20,49,33,27,27,22,6,89,70,18,0.00,40.00,9,2,16,0.00
2012-4-21,48,33,26,25,20,11,86,65,22,0.00,40.00,9,3,17,0.00
2012-4-22,50,38,35,30,17,-100,72,52,40,0.00,40.00,6,-63,14,0.00
2012-4-23,58,38,27,32,22,5,90,64,12,0.00,40.00,8,2,19,0.00
2012-4-24,65,42,33,26,21,7,64,47,11,0.00,40.00,10,3,17,0.00
2012-4-25,48,44,39,43,37,26,89,78,45,0.00,40.00,6,3,10,0.07
2012-4-26,51,38,28,35,23,-3,88,62,10,0.00,40.00,7,3,17,0.00
2012-4-27,49,32,23,21,14,-4,78,53,11,0.00,40.00,14,4,24,0.00
2012-4-28,50,39,29,24,20,15,79,47,25,0.00,40.00,14,6,21,0.00
2012-4-29,63,36,25,28,23,13,87,66,18,0.00,40.00,14,2,18,0.00
2012-4-30,62,46,41,41,36,29,89,71,32,0.00,40.00,9,-56,14,0.01
2012-5-1,70,53,38,55,45,35,89,76,31,0.00,40.00,12,3,22,0.76
2012-5-2,79,61,55,54,50,31,88,73,19,0.00,40.00,13,4,26,0.00
2012-5-3,55,53,51,51,48,46,89,84,78,0.00,40.00,7,2,17,0.10
2012-5-6,41,41,41,38,38,38,89,89,89,0.00,40.00,2,2,7,0.00
2012-5-8,54,54,54,36,36,36,51,51,51,0.00,40.00,4,4,7,0.00
2012-5-10,59,59,59,25,25,25,27,27,27,0.00,40.00,6,6,9,0.00
2012-5-14,81,76,73,34,31,28,24,20,14,0.00,40.00,4,4,12,0.00
2012-5-15,62,62,62,31,31,31,31,31,31,0.00,40.00,10,10,18,0.00
2012-5-26,58,58,58,41,41,41,52,52,52,0.00,40.00,1,1,6,0.00
2012-5-27,50,50,50,47,47,47,88,88,88,0.00,40.00,4,4,9,0.00
2012-6-4,63,63,63,52,52,52,67,67,67,0.00,40.00,4,4,6,0.00
2012-6-7,63,63,63,58,58,58,86,86,86,0.00,40.00,0,0,1,0.00
2012-6-23,61,61,61,57,57,57,87,87,87,0.00,40.00,2,2,3,0.17
2012-7-20,75,75,75,62,62,62,64,64,64,0.00,40.00,6,6,12,0.00
2012-7-21,82,75,73,66,60,40,78,64,23,0.00,40.00,9,8,16,0.00
2012-7-26,80,68,63,64,60,40,87,78,24,0.00,40.00,4,1,16,0.00
2012-7-27,73,64,53,57,52,43,87,69,34,0.00,40.00,6,2,9,0.00
2012-7-28,82,58,49,55,48,39,88,75,22,0.00,40.00,3,2,9,0.00
2012-7-29,83,63,55,58,54,51,87,76,39,0.00,40.00,5,2,14,0.00
2012-7-30,73,69,67,63,62,60,87,79,64,0.00,40.00,6,3,12,0.00
2012-7-31,66,62,59,59,57,55,87,85,79,0.00,40.00,3,2,5,0.00
2012-8-1,74,63,56,55,53,52,87,75,51,0.00,40.00,3,1,13,0.00
2012-8-2,69,67,63,62,59,56,87,76,67,0.00,40.00,4,2,7,0.00
2012-8-3,66,64,61,62,60,57,87,87,86,0.00,40.00,2,1,7,0.00
2012-8-4,70,70,70,45,45,45,42,42,42,0.00,40.00,4,4,13,0.00
2012-8-5,73,65,52,48,38,33,87,43,23,0.00,40.00,9,-25,22,0.00
2012-8-6,84,61,52,54,50,44,87,72,25,0.00,40.00,6,2,12,0.03
2012-8-7,78,66,56,59,51,37,87,64,23,0.00,40.00,4,1,11,0.00
2012-8-8,62,56,51,57,52,48,88,87,82,0.00,40.00,2,0,5,0.14
2012-8-9,68,57,52,57,51,48,88,82,50,0.00,40.00,6,2,13,0.06
2012-8-10,69,53,47,49,39,-100,87,70,32,0.00,40.00,7,-43,16,0.00
2012-8-11,75,56,43,48,40,36,88,65,24,0.00,40.00,5,2,11,0.00
2012-8-12,71,59,49,56,49,45,87,74,43,0.00,40.00,4,2,9,0.00
2012-8-13,75,62,53,57,50,41,87,71,29,0.00,40.00,7,4,12,0.00
2012-8-14,51,49,48,47,45,44,87,87,87,0.00,40.00,4,3,4,0.00
2012-8-15,76,58,50,61,23,-100,87,42,34,0.00,40.00,9,-163,13,0.18
2012-8-16,66,54,50,62,33,-100,87,60,50,0.00,40.00,13,-100,26,0.00
2012-8-17,68,49,39,47,33,-100,89,67,24,0.00,40.00,6,-44,17,0.00
2012-8-18,75,55,42,53,40,-100,88,68,21,0.00,40.00,10,-22,14,0.00
2012-8-19,71,60,49,50,36,15,88,53,12,0.00,40.00,4,3,9,0.00
2012-8-20,66,28,41,42,-27,-100,88,35,33,0.00,40.00,4,-471,10,0.00
2012-8-21,-200,0,200,-100,-100,-100,0,0,100,0.00,40.00,0,-999,0,0.00
2012-8-22,-200,0,200,-100,-100,-100,0,0,100,0.00,40.00,0,-999,0,0.00
2012-10-15,42,42,41,35,33,31,79,72,66,0.00,40.00,2,2,4,0.00
2012-10-16,51,44,41,43,39,35,89,82,74,0.00,40.00,2,0,4,0.00
2012-10-17,60,47,38,43,39,35,89,77,54,0.00,40.00,9,3,19,0.00
2012-10-18,48,46,44,43,42,41,88,87,83,0.00,40.00,3,2,7,0.08
2012-10-20,47,40,32,40,34,29,89,81,59,0.00,40.00,2,2,6,0.00
2012-10-21,57,41,30,39,32,27,89,75,42,0.00,40.00,6,1,10,0.00
2012-10-22,46,41,37,42,38,34,89,87,84,0.00,40.00,6,2,12,0.00
2012-10-23,47,46,45,44,42,41,89,87,85,0.00,40.00,9,8,15,0.00
2012-10-24,58,54,50,55,50,46,89,88,87,0.00,40.00,4,1,14,0.41
2012-10-25,38,36,35,34,31,26,86,82,71,0.00,40.00,12,9,21,0.00
2012-10-26,35,34,32,15,14,13,46,45,41,0.00,40.00,11,6,21,0.00
2012-10-27,38,29,23,18,13,4,81,55,24,0.00,40.00,9,2,13,0.00
2012-10-28,22,22,22,18,18,18,85,85,85,0.00,40.00,1,1,1,0.00
2012-10-29,46,34,27,23,18,7,86,57,20,0.00,40.00,7,2,13,0.00
2012-10-30,41,34,24,28,17,6,89,58,24,0.00,40.00,7,3,20,0.00
2012-10-31,44,36,15,19,2,-14,87,33,8,0.00,40.00,6,4,12,0.00
2012-11-1,40,37,33,31,27,22,78,68,54,0.00,40.00,6,4,15,0.00
2012-11-2,36,30,19,21,18,16,90,64,45,0.00,40.00,6,3,11,0.00
2012-11-3,35,28,25,22,21,19,86,73,54,0.00,40.00,6,3,10,0.00
2012-11-4,37,28,26,24,20,16,88,73,41,0.00,40.00,7,2,11,0.00
2012-11-5,38,28,23,23,20,17,89,73,41,0.00,40.00,4,1,11,0.00
2012-11-6,37,36,33,32,29,23,88,79,55,0.00,40.00,4,2,8,0.00
2012-11-7,37,37,37,34,34,33,88,87,86,0.00,40.00,3,3,7,0.00
2012-11-8,51,44,38,28,26,23,68,51,33,0.00,40.00,4,3,15,0.00
2012-11-9,40,38,36,34,33,31,87,82,78,0.00,40.00,7,3,17,0.00
2012-11-10,42,39,37,39,36,34,89,89,89,0.00,40.00,10,8,20,0.00
2012-11-11,56,56,56,49,49,49,76,76,76,0.00,40.00,7,7,21,0.00
2012-11-12,24,23,23,10,9,8,56,54,50,0.00,40.00,13,9,20,0.00
2012-11-13,27,22,19,12,10,9,67,61,49,0.00,40.00,7,5,15,0.00
2012-11-16,37,26,21,18,15,8,81,65,29,0.00,40.00,6,1,9,0.00
2012-11-17,51,38,24,24,22,21,88,62,35,0.00,40.00,7,4,14,0.00
2012-11-18,49,45,43,25,22,20,44,40,33,0.00,40.00,6,3,12,0.00
2012-11-20,34,32,30,31,29,27,89,89,89,0.00,40.00,4,2,5,0.00
2012-11-21,52,37,25,31,28,22,89,73,37,0.00,40.00,2,0,6,0.00
2012-11-22,57,36,25,33,27,21,89,74,36,0.00,40.00,12,10,27,4.99
2012-11-23,25,21,18,21,11,8,84,64,57,0.00,40.00,12,8,23,3.32
2012-11-24,23,20,16,17,10,4,84,66,45,0.00,40.00,6,2,11,3.11
2012-11-25,24,23,19,18,15,5,85,72,57,0.00,40.00,11,6,20,1.32
2012-11-26,16,11,2,5,2,-4,75,66,43,0.00,40.00,7,5,16,0.38
2012-11-27,26,22,13,18,11,2,81,64,50,0.00,40.00,8,5,18,0.29
2012-11-28,27,24,18,16,11,6,68,60,50,0.00,40.00,6,4,14,0.00
2012-11-29,27,24,17,22,19,14,86,81,75,0.00,40.00,8,4,21,0.00
2012-11-30,28,26,24,19,18,17,80,72,63,0.00,40.00,9,6,17,0.00
2012-12-1,38,35,32,33,31,28,89,85,80,0.00,40.00,6,3,12,0.00
2012-12-2,36,34,33,33,31,30,89,88,87,0.00,40.00,4,2,7,0.00
2012-12-3,50,46,33,46,42,30,88,86,84,0.00,40.00,9,5,21,0.00
2012-12-4,24,19,15,4,3,1,61,50,36,0.00,40.00,13,5,24,0.00
2012-12-5,28,19,15,11,10,8,83,69,42,0.00,40.00,7,2,10,0.00
2012-12-6,39,39,39,22,22,22,50,50,50,0.00,40.00,9,9,19,0.00
2012-12-7,28,27,26,14,14,13,60,57,53,0.00,40.00,4,2,9,0.00
2012-12-8,30,23,19,15,14,13,80,69,50,0.00,40.00,2,0,4,0.00
2012-12-9,29,28,27,22,21,19,84,75,68,0.00,40.00,6,3,11,1.32
2012-12-10,21,19,17,14,13,11,84,77,71,0.00,40.00,7,4,13,1.22
2012-12-11,15,14,13,7,6,6,75,72,67,0.00,40.00,4,3,12,0.46
2012-12-12,26,24,22,16,16,16,80,73,66,0.00,40.00,2,1,5,0.00
2012-12-13,29,26,22,23,21,16,81,79,77,0.00,40.00,2,1,6,0.00
2012-12-14,25,23,21,22,20,18,89,87,81,0.00,40.00,7,6,9,0.00
2012-12-15,35,34,33,32,31,29,89,87,82,0.00,40.00,7,5,12,0.18
2012-12-16,30,28,23,27,25,17,89,88,80,0.00,40.00,9,8,18,0.00
2012-12-17,25,24,23,17,14,12,80,66,60,0.00,40.00,6,2,12,0.00
2012-12-18,25,24,22,15,15,15,75,70,65,0.00,40.00,2,2,6,0.00
2012-12-20,28,24,19,22,18,12,84,78,73,0.00,40.00,8,6,21,0.93
2012-12-21,17,11,4,9,4,-1,78,73,58,0.00,40.00,7,-19,20,0.08
2012-12-22,29,13,0,11,2,-5,79,64,28,0.00,40.00,7,3,14,0.00
2012-12-23,20,14,11,8,4,0,77,65,42,0.00,40.00,4,2,13,0.00
2012-12-24,15,11,7,7,2,-2,76,67,54,0.00,40.00,7,4,14,0.02
2012-12-25,12,4,-1,2,-2,-7,80,74,58,0.00,40.00,7,4,16,0.00
2012-12-26,19,5,-2,4,-2,-8,78,72,53,0.00,40.00,3,1,7,0.00
2012-12-27,23,10,-6,14,3,-11,83,74,57,0.00,40.00,3,1,4,0.00
2012-12-28,24,16,10,14,10,7,85,78,57,0.00,40.00,2,1,7,0.01
2012-12-29,21,14,3,13,7,-2,84,76,63,0.00,40.00,6,3,11,0.09
2012-12-30,24,15,4,8,3,-2,78,61,39,0.00,40.00,6,3,12,0.00
2012-12-31,18,8,-5,10,-2,-11,74,63,51,0.00,40.00,8,5,20,0.00
2013-1-1,13,4,-10,5,-5,-15,76,68,44,0.00,40.00,11,5,19,0.01